SLRI/RIB METAR and TAF weather

Enter ICAO airport designator
Station Type Date Time Source
SLRI METAR 2020/11/27 15:00 UTC NOAA

SLRI 271500Z 09008KT 9999 SCT015 BKN200 30/23 Q1013


Station Type Date Time Source
SLRI Decoded METAR 2020/11/27 15:00 UTC NOAA

Riberalta, Bolivia (SLRI) 11-00S 066-07W
Nov 27, 2020 - 10:00 AM EST / 2020.11.27 1500 UTC
Wind: from the E (090 degrees) at 9 MPH (8 KT):0
Visibility: greater than 7 mile(s):0
Sky conditions: mostly cloudy
Temperature: 86 F (30 C)
Heat index: 93.4 F (34.1 C):1
Dew Point: 73 F (23 C)
Relative Humidity: 66%
Pressure (altimeter): 29.91 in. Hg (1013 hPa)
ob: SLRI 271500Z 09008KT 9999 SCT015 BKN200 30/23 Q1013
cycle: 15

Station Type Date Time Source
SLRI TAF 2015/11/18 00:29 UTC NOAA

TAF SLRI 182200Z 1900/1924 00000KT 9999 FEW015 TX37/1919Z TN23/1910Z
BECMG 1912/1914 33011KT SCT020
TEMPO 1919/1922 8000 VCSH FEW020 FEW023CB BKN080

Example: see airport list